Airfield :
LOGIN :

Register | Disclaimer

   EN    FR    IT 

 










Legend :    VFR   Marginal VFR   IFR   Intensive IFR   Very Intensive IFR
Visi :
Ceiling :
>= 8 km
>= 3000ft
5 to 8 km
1000 to 3000 ft
1500m to 5 km
500 to 1000 ft
800 to 1500m
200 to 500 ft
< 800m
< 200 ft
Symbols :   Thunderstorms  Fog  Heavy snow  Heavy precipitations  Wind > 20 kt
SIGMETs :     Misc.  Thunderstorms  Icing  Turbulence  Mountain Waves  Volcanic Ashes







- Airport Elevation : 75 ft
- IATA code : MRH


EGYM - RAF Marham

CURRENT METAR :
  • 202250Z 02006KT 5000 -RA OVC033 04/03 Q1006 WHT

EXPIRED METARs :
  • 202150Z AUTO 04005KT 5000 -RA OVC027/// 04/03 Q1007
  • 202050Z AUTO 06007KT 5000 -RA OVC027/// 04/02 Q1007

TAF TAF EGYM
Valid from the 20 at 18:00 until the 21 at 00:00 UTC


201639Z 2018/2024 07012KT 9999 FEW015 SCT025
TEMPO 2018/2024 6000 SHRA SCT015
PROB40
TEMPO 2018/2021 SCT010
BECMG 2021/2024 SCT010
No reported NOTAMs for that airfield.
1 SIGMET reported for the London FIR (EGTT) :
 
Severe mountain waves
EGTT SIGMET 04 VALID 202100/210100 EGRR
EGTT LONDON FIR SEV MTW FCST WI N5355 W00132 - N5232 W00304 - N5221 W00530 - N5500 W00530 - N5500 W00159 - N5355 W00132 FL030/120 MOV N 05KT NC=



MET'MAP, your aeronautical weather chart ! - Copyright ORBIFLY December 2007 - Disclaimer

ORBIFLY MET'MAP TEAM :

Programming & Development : Alexandra Zaïnal
Concept & Development : Baudouin d'Aumeries
Co-Development & Prog : Marc-Olivier Méhu
Technical & hardware support : Manuel Goepfert

Contact : metmap@orbifly.com




SOURCES & CREDITS :

   NOAA